createdAt,value
2017-08-06T00:00:01.577Z,90.39
2017-08-06T00:00:41.956Z,90.67
2017-08-06T00:01:22.424Z,90.58
2017-08-06T00:02:02.878Z,90.58
2017-08-06T00:02:43.319Z,90.87
2017-08-06T00:03:23.810Z,90.58
2017-08-06T00:04:04.206Z,89.72
2017-08-06T00:04:44.812Z,90.2
2017-08-06T00:05:25.196Z,90.01
2017-08-06T00:06:05.549Z,89.86
2017-08-06T00:06:45.955Z,89.19
2017-08-06T00:07:26.412Z,88.81
2017-08-06T00:08:06.890Z,88.52
2017-08-06T00:08:47.429Z,88.52
2017-08-06T00:09:27.892Z,88.81
2017-08-06T00:10:08.245Z,88.43
2017-08-06T00:10:48.688Z,89.48
2017-08-06T00:11:29.113Z,88.9
2017-08-06T00:12:09.561Z,88.52
2017-08-06T00:12:50.085Z,88.52
2017-08-06T00:13:30.363Z,87.56
2017-08-06T00:14:10.780Z,87.76
2017-08-06T00:14:51.187Z,87.27
2017-08-06T00:15:31.582Z,88.23
2017-08-06T00:16:11.979Z,87.56
2017-08-06T00:16:52.462Z,87.76
2017-08-06T00:17:32.953Z,87.56
2017-08-06T00:18:13.298Z,87.47
2017-08-06T00:18:53.716Z,87.66
2017-08-06T00:19:34.124Z,87.13
2017-08-06T00:20:14.565Z,87.18
2017-08-06T00:20:55.060Z,86.8
2017-08-06T00:21:35.455Z,87.37
2017-08-06T00:22:15.864Z,87.66
2017-08-06T00:22:56.295Z,86.9
2017-08-06T00:23:36.822Z,87.47
2017-08-06T00:24:17.126Z,87.76
2017-08-06T00:24:57.538Z,87.18
2017-08-06T00:25:38.112Z,87.08
2017-08-06T00:26:18.400Z,87.66
2017-08-06T00:26:58.892Z,87.95
2017-08-06T00:27:39.291Z,87.47
2017-08-06T00:28:19.940Z,88.04
2017-08-06T00:29:00.332Z,87.47
2017-08-06T00:29:40.787Z,87.66
2017-08-06T00:33:46.125Z,87.47
2017-08-06T00:45:35.343Z,88.57
2017-08-06T00:50:23.821Z,87.47
2017-08-06T00:51:23.515Z,87.56
2017-08-06T00:52:17.981Z,87.76
2017-08-06T00:53:15.062Z,88.04
2017-08-06T00:57:09.858Z,87.08
2017-08-06T00:57:50.813Z,87.27
2017-08-06T00:58:30.952Z,87.37
2017-08-06T00:59:11.421Z,87.76
2017-08-06T00:59:51.820Z,87.76
2017-08-06T01:00:32.291Z,87.56
2017-08-06T01:01:12.713Z,87.56
2017-08-06T01:01:53.194Z,87.47
2017-08-06T01:02:33.547Z,87.85
2017-08-06T01:03:13.996Z,87.71
2017-08-06T01:03:54.437Z,87.71
2017-08-06T01:04:34.890Z,87.43
2017-08-06T01:05:15.317Z,88.19
2017-08-06T01:05:55.920Z,88.09
2017-08-06T01:06:36.263Z,88.09
2017-08-06T01:07:16.677Z,87.47
2017-08-06T01:07:57.148Z,88.19
2017-08-06T01:08:37.575Z,87.52
2017-08-06T01:09:18.215Z,87.71
2017-08-06T01:09:58.557Z,87.66
2017-08-06T01:10:38.997Z,87.47
2017-08-06T01:11:19.386Z,87.66
2017-08-06T01:11:59.827Z,86.8
2017-08-06T01:12:40.455Z,87.18
2017-08-06T01:13:20.846Z,87.66
2017-08-06T01:14:01.363Z,87.33
2017-08-06T01:14:41.795Z,87.04
2017-08-06T01:15:22.233Z,87.71
2017-08-06T01:16:02.712Z,87.71
2017-08-06T01:16:43.707Z,87.62
2017-08-06T01:17:24.233Z,87.33
2017-08-06T01:18:04.573Z,87.33
2017-08-06T01:18:45.122Z,87.33
2017-08-06T01:19:25.575Z,87.62
2017-08-06T01:20:06.044Z,87.81
2017-08-06T01:20:46.742Z,88.86
2017-08-06T01:21:27.025Z,88.57
2017-08-06T01:22:07.482Z,88.57
2017-08-06T01:22:48.091Z,88.57
2017-08-06T01:23:28.397Z,88.76
2017-08-06T01:24:08.812Z,88.09
2017-08-06T01:24:49.248Z,89.34
2017-08-06T01:25:29.747Z,89.15
2017-08-06T01:26:10.189Z,88.48
2017-08-06T01:26:50.611Z,88.67
2017-08-06T01:27:30.965Z,88.29
2017-08-06T01:28:11.515Z,87.52
2017-08-06T01:28:51.746Z,87.71
2017-08-06T01:29:32.203Z,88.48
2017-08-06T01:30:12.637Z,87.52
2017-08-06T01:30:53.018Z,88.29
2017-08-06T01:31:33.523Z,88.19
2017-08-06T01:32:13.967Z,88.48
2017-08-06T01:32:54.524Z,87.9
2017-08-06T01:33:34.770Z,88.48
2017-08-06T01:34:15.160Z,88.48
2017-08-06T01:34:55.582Z,88.38
2017-08-06T01:35:35.934Z,88.38
2017-08-06T01:36:16.383Z,88.95
2017-08-06T01:36:56.850Z,88.86
2017-08-06T01:37:37.198Z,89.24
2017-08-06T01:38:17.645Z,89.34
2017-08-06T01:38:58.159Z,88.67
2017-08-06T01:39:38.519Z,88.48
2017-08-06T01:40:19.602Z,88.19
2017-08-06T01:41:00.252Z,88.57
2017-08-06T01:41:40.542Z,88.19
2017-08-06T01:47:46.058Z,89.2
2017-08-06T01:51:21.062Z,89.24
2017-08-06T01:52:16.112Z,89.48
2017-08-06T01:53:01.005Z,89.1
2017-08-06T01:58:59.257Z,88.67
2017-08-06T02:11:23.095Z,88.24
2017-08-06T02:12:14.787Z,88.81
2017-08-06T02:13:06.687Z,88.72
2017-08-06T02:15:37.129Z,89.1
2017-08-06T02:17:24.503Z,89.39
2017-08-06T02:18:22.181Z,89.39
2017-08-06T02:32:05.784Z,91.25
2017-08-06T02:32:54.500Z,91.25
2017-08-06T02:33:41.385Z,91.06
2017-08-06T03:25:39.860Z,95.12
2017-08-06T03:29:21.124Z,96.37
2017-08-06T04:00:49.912Z,97.42
2017-08-06T04:01:30.832Z,96.94
2017-08-06T04:02:11.111Z,96.84
2017-08-06T04:02:51.886Z,97.42
2017-08-06T04:03:32.345Z,96.75
2017-08-06T04:04:13.022Z,97.03
2017-08-06T04:04:53.942Z,97.32
2017-08-06T04:05:33.902Z,96.56
2017-08-06T04:06:14.574Z,96.46
2017-08-06T04:06:54.861Z,96.37
2017-08-06T04:07:35.194Z,96.66
2017-08-06T04:08:15.843Z,96.46
2017-08-06T04:08:56.199Z,96.27
2017-08-06T04:09:36.712Z,96.46
2017-08-06T04:10:17.454Z,96.46
2017-08-06T04:10:57.844Z,96.37
2017-08-06T04:11:38.384Z,95.75
2017-08-06T04:12:18.946Z,95.79
2017-08-06T04:12:59.229Z,96.03
2017-08-06T04:13:39.717Z,95.56
2017-08-06T04:14:20.428Z,95.36
2017-08-06T04:15:01.514Z,95.08
2017-08-06T04:15:41.338Z,95.27
2017-08-06T04:16:21.979Z,94.89
2017-08-06T04:17:03.148Z,94.98
2017-08-06T04:17:43.559Z,94.56
2017-08-06T04:18:24.063Z,94.89
2017-08-06T04:19:04.278Z,94.27
2017-08-06T04:19:44.732Z,94.65
2017-08-06T04:20:25.852Z,94.46
2017-08-06T04:21:06.269Z,94.46
2017-08-06T04:21:46.459Z,94.74
2017-08-06T04:22:26.876Z,95.36
2017-08-06T04:23:07.333Z,95.46
2017-08-06T04:23:47.770Z,94.89
2017-08-06T04:24:28.467Z,94.98
2017-08-06T04:25:09.306Z,94.7
2017-08-06T04:25:49.430Z,94.79
2017-08-06T04:26:29.778Z,94.6
2017-08-06T04:27:10.239Z,94.7
2017-08-06T04:27:50.529Z,94.41
2017-08-06T04:28:31.009Z,94.7
2017-08-06T04:29:11.321Z,94.51
2017-08-06T04:29:51.708Z,94.31
2017-08-06T04:30:32.214Z,94.12
2017-08-06T04:31:12.604Z,94.03
2017-08-06T04:31:53.030Z,93.55
2017-08-06T04:32:33.550Z,94.12
2017-08-06T04:33:13.799Z,93.93
2017-08-06T04:33:54.431Z,93.65
2017-08-06T04:34:34.601Z,92.83
2017-08-06T04:35:15.447Z,92.83
2017-08-06T04:35:55.785Z,93.02
2017-08-06T04:36:36.103Z,93.31
2017-08-06T04:37:16.855Z,92.83
2017-08-06T04:37:57.266Z,93.31
2017-08-06T04:38:37.953Z,93.21
2017-08-06T04:39:18.534Z,92.93
2017-08-06T04:39:58.898Z,93.21
2017-08-06T04:40:39.508Z,93.79
2017-08-06T04:41:19.817Z,93.5
2017-08-06T04:42:00.405Z,92.64
2017-08-06T04:42:40.717Z,92.36
2017-08-06T04:43:21.237Z,92.07
2017-08-06T04:44:01.686Z,93.12
2017-08-06T04:44:42.805Z,92.64
2017-08-06T04:45:23.310Z,93.02
2017-08-06T04:46:03.603Z,93.21
2017-08-06T04:46:44.314Z,92.93
2017-08-06T04:47:24.558Z,92.36
2017-08-06T04:48:04.944Z,92.36
2017-08-06T04:48:47.205Z,92.16
2017-08-06T04:49:28.458Z,92.16
2017-08-06T04:50:09.027Z,92.16
2017-08-06T04:50:49.645Z,91.69
2017-08-06T04:51:30.579Z,92.02
2017-08-06T04:52:13.755Z,91.54
2017-08-06T04:52:55.505Z,91.02
2017-08-06T04:53:34.942Z,90.49
2017-08-06T04:54:17.325Z,90.45
2017-08-06T04:54:57.592Z,90.06
2017-08-06T04:55:43.943Z,89.73
2017-08-06T04:56:24.659Z,90.3
2017-08-06T04:57:08.944Z,89.44
2017-08-06T04:57:50.134Z,89.06
2017-08-06T04:58:31.196Z,89.01
2017-08-06T04:59:11.857Z,87.76
2017-08-06T04:59:52.589Z,87.95
2017-08-06T05:00:34.832Z,87.66
2017-08-06T05:01:22.481Z,87.66
2017-08-06T05:02:01.659Z,87.66
2017-08-06T05:02:42.392Z,87.09
2017-08-06T05:03:23.733Z,87.38
2017-08-06T05:04:05.425Z,87.48
2017-08-06T05:18:41.818Z,82.68
2017-08-06T05:22:12.516Z,76.57
2017-08-06T05:26:02.926Z,71.86
2017-08-06T05:26:51.471Z,72.08
2017-08-06T05:27:40.354Z,71.31
2017-08-06T05:28:28.769Z,69.68
2017-08-06T05:29:17.279Z,69.49
2017-08-06T05:30:05.860Z,68.95
2017-08-06T05:40:21.998Z,57.72
2017-08-06T05:47:34.362Z,54.18
2017-08-06T05:48:29.151Z,54.6
2017-08-06T05:49:09.638Z,53.73
2017-08-06T05:49:50.153Z,53.25
2017-08-06T05:50:30.692Z,53.44
2017-08-06T05:51:11.155Z,53.53
2017-08-06T05:51:51.686Z,53.61
2017-08-06T05:52:32.139Z,53.73
2017-08-06T05:53:12.794Z,52.79
2017-08-06T05:53:53.336Z,52.89
2017-08-06T05:54:33.664Z,52.76
2017-08-06T05:55:14.117Z,52.76
2017-08-06T05:55:54.523Z,52.95
2017-08-06T05:56:34.883Z,52.95
2017-08-06T05:57:15.364Z,52.89
2017-08-06T05:57:55.749Z,52.76
2017-08-06T05:58:36.190Z,52.86
2017-08-06T06:00:36.515Z,50.98
2017-08-06T06:01:16.380Z,49.75
2017-08-06T06:01:56.804Z,48.59
2017-08-06T06:02:37.237Z,48.71
2017-08-06T06:03:17.625Z,47.96
2017-08-06T06:03:58.142Z,46.63
2017-08-06T06:04:38.546Z,46.05
2017-08-06T06:05:18.968Z,45.3
2017-08-06T06:05:59.391Z,44.72
2017-08-06T06:09:35.612Z,46.78
2017-08-06T06:10:15.873Z,47.74
2017-08-06T06:10:56.319Z,47.94
2017-08-06T06:11:36.781Z,47.36
2017-08-06T06:12:17.116Z,46.9
2017-08-06T06:12:57.504Z,46.42
2017-08-06T06:13:37.930Z,45.74
2017-08-06T06:14:18.305Z,45.47
2017-08-06T06:14:58.798Z,46.05
2017-08-06T06:15:39.192Z,45.47
2017-08-06T06:16:19.535Z,45.18
2017-08-06T06:16:59.951Z,45.37
2017-08-06T06:17:40.381Z,46.25
2017-08-06T06:18:20.769Z,45.95
2017-08-06T06:19:01.198Z,44.98
2017-08-06T06:19:41.565Z,44.89
2017-08-06T06:20:22.169Z,45.25
2017-08-06T06:21:02.502Z,45.83
2017-08-06T06:21:43.032Z,45.93
2017-08-06T06:22:23.463Z,46.3
2017-08-06T06:23:03.889Z,45.83
2017-08-06T06:23:44.429Z,46.12
2017-08-06T06:24:24.819Z,46.22
2017-08-06T06:25:05.413Z,45.64
2017-08-06T06:25:46.255Z,45.74
2017-08-06T06:26:26.415Z,45.45
2017-08-06T06:27:06.853Z,45.93
2017-08-06T06:27:47.248Z,46.05
2017-08-06T06:28:27.787Z,45.66
2017-08-06T06:29:08.240Z,44.62
2017-08-06T06:29:48.703Z,43.68
2017-08-06T06:30:29.157Z,43.02
2017-08-06T06:31:09.674Z,42.26
2017-08-06T06:31:50.045Z,41.7
2017-08-06T06:32:30.492Z,40.64
2017-08-06T06:33:11.057Z,40.64
2017-08-06T06:33:51.511Z,40.33
2017-08-06T06:34:31.852Z,40.44
2017-08-06T06:35:12.293Z,39.95
2017-08-06T06:35:52.728Z,40.54
2017-08-06T06:36:33.202Z,39.95
2017-08-06T06:37:13.646Z,39.67
2017-08-06T06:37:54.189Z,39.29
2017-08-06T06:38:34.627Z,39.39
2017-08-06T06:39:14.989Z,39.78
2017-08-06T06:39:55.462Z,39.78
2017-08-06T06:40:35.942Z,39.41
2017-08-06T06:41:16.317Z,38.65
2017-08-06T06:41:56.765Z,37.78
2017-08-06T06:42:37.209Z,37.78
2017-08-06T06:43:17.668Z,36.93
2017-08-06T06:43:58.124Z,36.54
2017-08-06T06:44:38.521Z,36.16
2017-08-06T06:45:18.969Z,36.26
2017-08-06T06:45:59.381Z,35.6
2017-08-06T06:46:39.745Z,34.94
2017-08-06T06:47:20.233Z,34.05
2017-08-06T06:48:00.546Z,34.35
2017-08-06T06:48:40.952Z,33.88
2017-08-06T06:49:21.370Z,33.2
2017-08-06T06:50:01.827Z,32.92
2017-08-06T06:50:42.213Z,32.92
2017-08-06T06:51:22.686Z,32.06
2017-08-06T06:52:03.070Z,31.4
2017-08-06T06:52:43.438Z,32.26
2017-08-06T06:53:23.892Z,31.57
2017-08-06T06:54:04.307Z,31.59
2017-08-06T06:54:44.733Z,30.83
2017-08-06T06:55:25.101Z,31.02
2017-08-06T06:56:05.523Z,30.24
2017-08-06T06:56:45.949Z,29.36
2017-08-06T06:57:26.329Z,29.66
2017-08-06T06:58:06.798Z,29.67
2017-08-06T06:58:47.200Z,29.28
2017-08-06T06:59:27.599Z,30.45
2017-08-06T07:00:08.034Z,30.74
2017-08-06T07:00:48.474Z,30.84
2017-08-06T07:01:28.914Z,29.49
2017-08-06T07:02:09.341Z,29.39
2017-08-06T07:02:49.803Z,28.63
2017-08-06T07:03:30.342Z,28.63
2017-08-06T07:04:10.653Z,28.14
2017-08-06T07:04:51.086Z,27.84
2017-08-06T07:05:31.508Z,27.37
2017-08-06T07:06:11.863Z,27.56
2017-08-06T07:07:59.193Z,26.81
2017-08-06T07:08:39.601Z,26.23
2017-08-06T07:09:20.021Z,26.04
2017-08-06T07:10:00.418Z,25.74
2017-08-06T07:10:40.830Z,25.45
2017-08-06T07:11:21.234Z,25.35
2017-08-06T07:12:01.651Z,26.22
2017-08-06T07:12:42.057Z,26.31
2017-08-06T07:13:22.464Z,26.03
2017-08-06T07:14:02.878Z,25.73
2017-08-06T07:14:43.285Z,25.74
2017-08-06T07:15:23.704Z,26.32
2017-08-06T07:16:04.144Z,25.93
2017-08-06T07:16:44.610Z,25.55
2017-08-06T07:17:25.022Z,25.46
2017-08-06T07:18:05.391Z,25.46
2017-08-06T07:18:45.837Z,25.07
2017-08-06T07:19:26.252Z,25.56
2017-08-06T07:20:06.679Z,26.14
2017-08-06T07:20:47.065Z,26.14
2017-08-06T07:21:27.495Z,26.42
2017-08-06T07:22:07.943Z,25.83
2017-08-06T07:22:48.306Z,25.26
2017-08-06T07:23:28.695Z,25.37
2017-08-06T07:24:09.105Z,24.4
2017-08-06T07:24:49.482Z,24.11
2017-08-06T07:25:29.920Z,23.72
2017-08-06T07:26:10.378Z,23.54
2017-08-06T07:26:50.867Z,24.59
2017-08-06T07:27:31.354Z,24.4
2017-08-06T07:28:11.762Z,24.68
2017-08-06T07:28:52.241Z,25.24
2017-08-06T07:29:32.667Z,26.21
2017-08-06T07:30:13.029Z,27.27
2017-08-06T07:30:53.417Z,27.65
2017-08-06T07:31:33.858Z,27.27
2017-08-06T07:32:14.271Z,27.37
2017-08-06T07:37:58.416Z,26.87
2017-08-06T07:38:38.773Z,27.33
2017-08-06T07:39:19.196Z,28.11
2017-08-06T07:39:59.617Z,28.45
2017-08-06T07:40:39.956Z,29.14
2017-08-06T07:41:20.388Z,31.06
2017-08-06T07:42:00.799Z,31.35
2017-08-06T07:42:41.233Z,31.04
2017-08-06T07:43:21.608Z,31.53
2017-08-06T07:44:02.000Z,31.53
2017-08-06T07:44:42.411Z,32.87
2017-08-06T07:45:22.871Z,31.61
2017-08-06T07:46:03.209Z,33.25
2017-08-06T07:46:43.777Z,33.83
2017-08-06T07:47:24.087Z,34.4
2017-08-06T07:48:04.475Z,33.99
2017-08-06T07:48:44.879Z,34.58
2017-08-06T07:49:25.298Z,34.17
2017-08-06T07:50:05.742Z,35.14
2017-08-06T07:50:46.093Z,35.06
2017-08-06T07:51:26.483Z,34.22
2017-08-06T07:52:06.907Z,32.97
2017-08-06T07:52:47.302Z,31.82
2017-08-06T07:53:27.726Z,30.78
2017-08-06T07:54:08.194Z,29.07
2017-08-06T07:54:48.547Z,27.54
2017-08-06T07:55:29.018Z,26
2017-08-06T07:56:09.383Z,25.15
2017-08-06T07:56:49.907Z,24.57
2017-08-06T07:57:30.304Z,25.34
2017-08-06T07:58:11.281Z,26.2
2017-08-06T08:00:19.228Z,28.97
2017-08-06T08:02:06.490Z,30.58
2017-08-06T08:02:46.616Z,30.57
2017-08-06T08:03:27.085Z,31.04
2017-08-06T08:04:07.746Z,32.78
2017-08-06T08:04:47.903Z,33.25
2017-08-06T08:05:28.371Z,34.4
2017-08-06T08:06:08.700Z,34.69
2017-08-06T08:06:49.131Z,34.59
2017-08-06T08:07:29.574Z,33.15
2017-08-06T08:08:09.937Z,32.39
2017-08-06T08:08:50.414Z,30.67
2017-08-06T08:09:30.816Z,28.67
2017-08-06T08:10:11.163Z,27.51
2017-08-06T08:10:51.537Z,26.95
2017-08-06T08:11:32.028Z,25.51
2017-08-06T08:12:12.472Z,25.06
2017-08-06T08:12:52.917Z,23.02
2017-08-06T08:13:33.216Z,22.84
2017-08-06T08:14:13.589Z,21.87
2017-08-06T08:14:54.020Z,21.11
2017-08-06T08:15:34.429Z,19.94
2017-08-06T08:16:15.000Z,19.37
2017-08-06T08:16:55.237Z,19.18
2017-08-06T08:17:35.724Z,18.29
2017-08-06T08:19:32.564Z,16.36
2017-08-06T08:20:30.813Z,15.58
2017-08-06T08:21:31.357Z,15.2
2017-08-06T08:22:30.686Z,14.71
2017-08-06T08:23:30.257Z,14.81
2017-08-06T08:24:25.496Z,16.17
2017-08-06T08:25:18.708Z,15.88
2017-08-06T08:26:19.502Z,15.78
2017-08-06T08:27:17.979Z,16
2017-08-06T08:28:17.834Z,15.21
2017-08-06T08:29:13.184Z,14.73
2017-08-06T08:30:09.637Z,14.73
2017-08-06T08:31:02.978Z,14.82
2017-08-06T08:31:59.343Z,14.72
2017-08-06T08:32:42.592Z,15.19
2017-08-06T08:33:23.104Z,17.23
2017-08-06T08:34:03.494Z,18.19
2017-08-06T08:34:43.892Z,19.14
2017-08-06T08:35:24.283Z,20.69
2017-08-06T08:36:04.769Z,20.98
2017-08-06T08:36:45.146Z,20.97
2017-08-06T08:37:25.569Z,20.28
2017-08-06T08:38:06.181Z,21.83
2017-08-06T08:38:46.657Z,21.91
2017-08-06T08:39:27.140Z,22.37
2017-08-06T08:40:07.510Z,23.72
2017-08-06T08:40:48.038Z,26.04
2017-08-06T08:41:28.445Z,26.15
2017-08-06T08:42:08.882Z,24.32
2017-08-06T08:42:49.297Z,23.64
2017-08-06T08:43:29.666Z,23.48
2017-08-06T08:44:10.116Z,21.85
2017-08-06T08:44:50.491Z,20.5
2017-08-06T08:45:30.948Z,19.14
2017-08-06T08:46:11.284Z,18.67
2017-08-06T08:46:51.832Z,17.99
2017-08-06T08:47:32.220Z,16.33
2017-08-06T08:48:12.619Z,14.88
2017-08-06T08:48:53.082Z,14.2
2017-08-06T08:49:33.518Z,14.79
2017-08-06T08:50:13.964Z,13.61
2017-08-06T08:50:54.359Z,14.4
2017-08-06T08:51:34.776Z,14.01
2017-08-06T08:52:15.223Z,14.22
2017-08-06T08:52:55.641Z,13.24
2017-08-06T08:53:36.096Z,13.14
2017-08-06T08:54:16.553Z,12.46
2017-08-06T08:54:56.935Z,11.28
2017-08-06T08:55:37.345Z,11.98
2017-08-06T08:56:17.797Z,11.99
2017-08-06T08:56:58.285Z,11.29
2017-08-06T08:57:38.655Z,11.79
2017-08-06T08:58:19.123Z,11.21
2017-08-06T08:58:59.562Z,11.01
2017-08-06T08:59:39.961Z,11.01
2017-08-06T09:00:20.379Z,11.32
2017-08-06T09:01:01.112Z,10.82
2017-08-06T09:01:41.458Z,11.21
2017-08-06T09:02:21.865Z,10.92
2017-08-06T09:03:02.358Z,10.62
2017-08-06T09:03:42.750Z,10.52
2017-08-06T09:04:23.169Z,9.83
2017-08-06T09:05:03.724Z,9.63
2017-08-06T09:05:44.141Z,9.03
2017-08-06T09:06:24.553Z,9.43
2017-08-06T09:07:05.108Z,9.33
2017-08-06T09:07:45.434Z,9.94
2017-08-06T09:08:26.008Z,9.64
2017-08-06T09:09:06.619Z,9.64
2017-08-06T09:09:47.034Z,9.94
2017-08-06T09:10:27.606Z,9.83
2017-08-06T09:11:08.111Z,9.74
2017-08-06T09:11:48.605Z,9.55
2017-08-06T09:12:29.002Z,9.55
2017-08-06T09:13:09.492Z,9.16
2017-08-06T09:13:49.854Z,8.65
2017-08-06T09:14:30.294Z,8.56
2017-08-06T09:15:10.685Z,8.45
2017-08-06T09:15:51.100Z,8.75
2017-08-06T09:16:31.532Z,8.95
2017-08-06T09:17:11.981Z,9.54
2017-08-06T09:17:52.476Z,9.54
2017-08-06T09:18:33.110Z,9.24
2017-08-06T09:19:13.514Z,9.63
2017-08-06T09:19:54.810Z,9.82
2017-08-06T09:20:34.478Z,10.02
2017-08-06T09:21:15.077Z,9.82
2017-08-06T09:21:55.499Z,9.42
2017-08-06T09:22:36.026Z,9.63
2017-08-06T09:23:16.423Z,8.73
2017-08-06T09:23:56.897Z,9.03
2017-08-06T09:24:37.345Z,9.23
2017-08-06T09:25:17.796Z,8.84
2017-08-06T09:25:58.149Z,8.65
2017-08-06T09:26:38.578Z,7.75
2017-08-06T09:27:18.929Z,7.35
2017-08-06T09:27:59.366Z,8.54
2017-08-06T09:28:39.822Z,7.86
2017-08-06T09:29:20.212Z,6.57
2017-08-06T09:30:00.621Z,6.27
2017-08-06T09:30:41.105Z,7.16
2017-08-06T09:31:21.490Z,6.96
2017-08-06T09:32:01.995Z,6.87
2017-08-06T09:32:42.285Z,6.07
2017-08-06T09:33:22.672Z,5.78
2017-08-06T09:34:03.192Z,7.07
2017-08-06T09:34:43.551Z,6.98
2017-08-06T09:35:24.016Z,6.08
2017-08-06T09:36:04.520Z,5.78
2017-08-06T09:36:44.906Z,6.18
2017-08-06T09:37:25.331Z,6.68
2017-08-06T09:38:05.796Z,6.29
2017-08-06T09:38:46.328Z,5.49
2017-08-06T09:39:26.825Z,6.08
2017-08-06T09:40:07.144Z,6.38
2017-08-06T09:40:47.568Z,5.78
2017-08-06T09:41:28.008Z,5.88
2017-08-06T09:42:08.351Z,5.98
2017-08-06T09:42:48.867Z,5.58
2017-08-06T09:43:29.362Z,6.38
2017-08-06T09:44:09.784Z,6.08
2017-08-06T09:44:50.325Z,6.28
2017-08-06T09:45:30.731Z,6.08
2017-08-06T09:46:11.194Z,6.18
2017-08-06T09:46:51.632Z,6.78
2017-08-06T09:47:32.042Z,5.58
2017-08-06T09:48:12.506Z,5.99
2017-08-06T09:48:52.902Z,6.59
2017-08-06T09:49:33.425Z,5.79
2017-08-06T09:50:13.855Z,6.59
2017-08-06T09:50:54.204Z,6.09
2017-08-06T09:51:34.649Z,6.18
2017-08-06T09:52:15.026Z,5.49
2017-08-06T09:52:55.509Z,5.9
2017-08-06T09:53:35.939Z,5.6
2017-08-06T09:54:16.349Z,5.8
2017-08-06T09:54:56.777Z,6.59
2017-08-06T09:55:37.316Z,7.28
2017-08-06T09:56:17.788Z,7.86
2017-08-06T09:56:58.171Z,8.94
2017-08-06T09:57:38.932Z,9.71
2017-08-06T09:58:19.046Z,10.29
2017-08-06T09:58:59.515Z,11.96
2017-08-06T09:59:39.937Z,12.73
2017-08-06T10:00:20.302Z,13.89
2017-08-06T10:01:00.725Z,14.76
2017-08-06T10:01:41.175Z,14.65
2017-08-06T10:02:21.628Z,15.23
2017-08-06T10:03:02.019Z,16.31
2017-08-06T10:03:42.395Z,16.11
2017-08-06T10:04:22.858Z,16.02
2017-08-06T10:05:03.303Z,14.17
2017-08-06T10:05:43.672Z,12.41
2017-08-06T10:06:24.126Z,11.93
2017-08-06T10:07:04.567Z,11.65
2017-08-06T10:07:44.924Z,11.07
2017-08-06T10:08:25.382Z,10.97
2017-08-06T10:09:05.806Z,10.58
2017-08-06T10:09:46.278Z,10
2017-08-06T10:10:26.629Z,10.1
2017-08-06T10:11:07.121Z,9.9
2017-08-06T10:11:47.679Z,9.22
2017-08-06T10:12:28.080Z,7.93
2017-08-06T10:13:08.483Z,8.83
2017-08-06T10:13:48.945Z,8.04
2017-08-06T10:14:29.337Z,6.46
2017-08-06T10:15:09.818Z,6.46
2017-08-06T10:15:50.217Z,7.55
2017-08-06T10:16:30.639Z,7.76
2017-08-06T10:17:11.119Z,7.16
2017-08-06T10:17:51.517Z,6.87
2017-08-06T10:18:31.888Z,6.37
2017-08-06T10:19:12.287Z,6.57
2017-08-06T10:19:52.774Z,6.08
2017-08-06T10:20:33.141Z,4.98
2017-08-06T10:21:13.575Z,5.48
2017-08-06T10:21:54.005Z,5.18
2017-08-06T10:22:34.777Z,5.68
2017-08-06T10:23:15.227Z,5.88
2017-08-06T10:23:55.760Z,5.98
2017-08-06T10:24:36.048Z,5.98
2017-08-06T10:25:16.501Z,5.78
2017-08-06T10:25:56.889Z,5.19
2017-08-06T10:26:37.343Z,6.08
2017-08-06T10:27:17.869Z,5.78
2017-08-06T10:27:59.039Z,6.57
2017-08-06T10:28:39.514Z,5.88
2017-08-06T10:29:19.945Z,5.87
2017-08-06T10:30:00.385Z,5.98
2017-08-06T10:30:41.055Z,5.68
2017-08-06T10:31:21.331Z,4.98
2017-08-06T10:32:01.739Z,5.38
2017-08-06T10:32:42.183Z,4.88
2017-08-06T10:33:22.744Z,5.18
2017-08-06T10:34:03.849Z,5.08
2017-08-06T10:34:43.583Z,4.08
2017-08-06T10:35:23.979Z,3.78
2017-08-06T10:36:04.364Z,4.49
2017-08-06T10:36:44.867Z,3.79
2017-08-06T10:37:25.375Z,4.59
2017-08-06T10:38:05.722Z,4.49
2017-08-06T10:38:46.174Z,4.89
2017-08-06T10:39:26.576Z,4.89
2017-08-06T10:40:06.993Z,4.99
2017-08-06T10:40:47.478Z,4.49
2017-08-06T10:41:27.889Z,4.49
2017-08-06T10:42:08.346Z,3.89
2017-08-06T10:42:48.793Z,4.79
2017-08-06T10:43:29.190Z,4.88
2017-08-06T10:44:09.724Z,4.99
2017-08-06T10:44:50.121Z,5.09
2017-08-06T10:45:30.582Z,4.79
2017-08-06T10:46:10.873Z,4.1
2017-08-06T10:46:51.332Z,4.19
2017-08-06T10:47:31.751Z,4.49
2017-08-06T10:48:12.227Z,4.1
2017-08-06T10:48:52.636Z,3.89
2017-08-06T10:49:33.007Z,3.7
2017-08-06T10:50:13.777Z,4.2
2017-08-06T10:50:54.037Z,3.5
2017-08-06T10:51:34.449Z,2.5
2017-08-06T10:52:14.860Z,2.8
2017-08-06T10:52:55.273Z,3.2
2017-08-06T10:53:35.723Z,2.2
2017-08-06T10:54:16.136Z,3.2
2017-08-06T10:54:56.596Z,3.8
2017-08-06T10:55:37.060Z,4
2017-08-06T10:56:17.516Z,4.19
2017-08-06T10:56:57.905Z,4.98
2017-08-06T10:57:38.332Z,6.36
2017-08-06T10:58:18.839Z,7.93
2017-08-06T10:58:59.289Z,8.02
2017-08-06T10:59:39.741Z,9.3
2017-08-06T11:00:20.383Z,10.07
2017-08-06T11:01:00.745Z,10.95
2017-08-06T11:01:41.187Z,11.13
2017-08-06T11:02:21.587Z,11.33
2017-08-06T11:03:01.988Z,11.92
2017-08-06T11:03:42.419Z,12.89
2017-08-06T11:04:22.939Z,12.69
2017-08-06T11:05:03.376Z,13.37
2017-08-06T11:05:43.806Z,13.85
2017-08-06T11:06:24.274Z,14.53
2017-08-06T11:07:04.752Z,14.81
2017-08-06T11:07:45.210Z,16.27
2017-08-06T11:08:25.566Z,15.79
2017-08-06T11:09:05.983Z,15.01
2017-08-06T11:09:46.459Z,14.25
2017-08-06T11:10:26.900Z,14.06
2017-08-06T11:11:07.370Z,12.81
2017-08-06T11:11:47.859Z,12.04
2017-08-06T11:12:28.222Z,10.57
2017-08-06T11:13:08.611Z,9.78
2017-08-06T11:13:49.112Z,9.4
2017-08-06T11:14:29.459Z,8.22
2017-08-06T11:15:09.948Z,8.42
2017-08-06T11:15:50.379Z,6.94
2017-08-06T11:16:31.010Z,7.15
2017-08-06T11:17:11.508Z,6.05
2017-08-06T11:17:51.946Z,6.15
2017-08-06T11:18:32.423Z,6.35
2017-08-06T11:19:12.793Z,6.65
2017-08-06T11:19:53.347Z,6.46
2017-08-06T11:20:33.736Z,6.67
2017-08-06T11:21:14.144Z,6.46
2017-08-06T11:21:54.638Z,6.07
2017-08-06T11:22:35.054Z,5.97
2017-08-06T11:23:15.539Z,5.98
2017-08-06T11:23:56.120Z,5.58
2017-08-06T11:24:36.530Z,5.58
2017-08-06T11:25:16.945Z,5.78
2017-08-06T11:25:57.347Z,5.48
2017-08-06T11:26:37.833Z,5.48
2017-08-06T11:27:18.280Z,4.79
2017-08-06T11:27:58.755Z,3.99
2017-08-06T11:28:39.108Z,4.89
2017-08-06T11:29:19.483Z,5.09
2017-08-06T11:29:59.993Z,4.99
2017-08-06T11:30:40.458Z,5.09
2017-08-06T11:31:20.890Z,4.89
2017-08-06T11:32:01.444Z,5.09
2017-08-06T11:32:41.862Z,5.38
2017-08-06T11:33:22.220Z,4.99
2017-08-06T11:34:02.753Z,5.08
2017-08-06T11:34:43.163Z,3.89
2017-08-06T11:35:23.570Z,5.18
2017-08-06T11:36:04.013Z,4.79
2017-08-06T11:36:44.372Z,5.09
2017-08-06T11:37:24.811Z,4.59
2017-08-06T11:38:05.291Z,4.49
2017-08-06T11:38:45.690Z,4.1
2017-08-06T11:39:26.199Z,4.1
2017-08-06T11:40:06.545Z,3.69
2017-08-06T11:40:46.977Z,5.09
2017-08-06T11:41:27.496Z,4.89
2017-08-06T11:42:08.069Z,4
2017-08-06T11:42:48.411Z,4.1
2017-08-06T11:43:28.820Z,3.5
2017-08-06T11:44:09.651Z,3.8
2017-08-06T11:44:49.993Z,3.3
2017-08-06T11:45:30.423Z,3.2
2017-08-06T11:46:11.384Z,5.09
2017-08-06T11:46:52.059Z,4.98
2017-08-06T11:47:32.561Z,5.57
2017-08-06T11:48:13.043Z,5.97
2017-08-06T11:48:53.531Z,5.96
2017-08-06T11:49:34.009Z,6.74
2017-08-06T11:50:14.472Z,7.13
2017-08-06T11:50:54.936Z,8.7
2017-08-06T11:51:35.374Z,8.89
2017-08-06T11:52:15.784Z,9.57
2017-08-06T11:52:56.170Z,10.85
2017-08-06T11:53:36.721Z,11.13
2017-08-06T11:54:17.181Z,11.91
2017-08-06T11:54:57.652Z,12.3
2017-08-06T11:55:37.975Z,12.79
2017-08-06T11:56:18.506Z,12.98
2017-08-06T11:56:58.883Z,12.79
2017-08-06T11:57:39.440Z,12.4
2017-08-06T11:58:19.852Z,10.84
2017-08-06T11:59:00.330Z,10.26
2017-08-06T11:59:40.733Z,10.37
2017-08-06T12:00:21.135Z,9.39
2017-08-06T12:01:01.619Z,8.42
2017-08-06T12:01:41.982Z,7.63
2017-08-06T12:02:22.346Z,5.75
2017-08-06T12:03:02.778Z,5.26
2017-08-06T12:03:43.333Z,5.96
2017-08-06T12:04:23.872Z,5.17
2017-08-06T12:05:04.271Z,5.66
2017-08-06T12:05:44.734Z,5.76
2017-08-06T12:06:25.141Z,6.06
2017-08-06T12:07:05.558Z,5.46
2017-08-06T12:07:45.991Z,5.27
2017-08-06T12:08:26.437Z,4.87
2017-08-06T12:09:06.877Z,4.27
2017-08-06T12:09:47.279Z,4.96
2017-08-06T12:10:27.717Z,5.26
2017-08-06T12:11:08.152Z,5.74
2017-08-06T12:11:48.583Z,5.94
2017-08-06T12:12:29.124Z,5.95
2017-08-06T12:13:09.480Z,5.55